sensor_id;sensor_type;location;lat;lon;timestamp;P1;durP1;ratioP1;P2;durP2;ratioP2
9156;SDS011;4613;48.392;9.998;2022-07-05T00:00:15;3.77;;;3.40;;
9156;SDS011;4613;48.392;9.998;2022-07-05T00:02:46;3.63;;;3.30;;
9156;SDS011;4613;48.392;9.998;2022-07-05T00:05:17;3.33;;;3.03;;
9156;SDS011;4613;48.392;9.998;2022-07-05T00:07:48;3.50;;;3.20;;
9156;SDS011;4613;48.392;9.998;2022-07-05T00:10:19;4.07;;;3.23;;
9156;SDS011;4613;48.392;9.998;2022-07-05T00:12:50;3.17;;;2.93;;
9156;SDS011;4613;48.392;9.998;2022-07-05T00:15:21;3.13;;;2.93;;
9156;SDS011;4613;48.392;9.998;2022-07-05T00:17:53;7.37;;;3.00;;
9156;SDS011;4613;48.392;9.998;2022-07-05T00:20:24;3.77;;;3.17;;
9156;SDS011;4613;48.392;9.998;2022-07-05T00:22:55;4.33;;;3.10;;
9156;SDS011;4613;48.392;9.998;2022-07-05T00:25:26;3.67;;;2.90;;
9156;SDS011;4613;48.392;9.998;2022-07-05T00:27:57;3.23;;;3.00;;
9156;SDS011;4613;48.392;9.998;2022-07-05T00:30:28;3.93;;;3.10;;
9156;SDS011;4613;48.392;9.998;2022-07-05T00:32:59;3.93;;;2.87;;
9156;SDS011;4613;48.392;9.998;2022-07-05T00:35:30;4.23;;;3.00;;
9156;SDS011;4613;48.392;9.998;2022-07-05T00:38:01;7.30;;;3.97;;
9156;SDS011;4613;48.392;9.998;2022-07-05T00:40:32;6.17;;;3.23;;
9156;SDS011;4613;48.392;9.998;2022-07-05T00:43:03;3.30;;;3.00;;
9156;SDS011;4613;48.392;9.998;2022-07-05T00:45:34;3.50;;;3.20;;
9156;SDS011;4613;48.392;9.998;2022-07-05T00:48:05;3.63;;;3.33;;
9156;SDS011;4613;48.392;9.998;2022-07-05T00:50:36;4.43;;;3.40;;
9156;SDS011;4613;48.392;9.998;2022-07-05T00:53:07;4.53;;;3.87;;
9156;SDS011;4613;48.392;9.998;2022-07-05T00:55:39;4.97;;;4.10;;
9156;SDS011;4613;48.392;9.998;2022-07-05T00:58:11;7.93;;;4.40;;
9156;SDS011;4613;48.392;9.998;2022-07-05T01:00:42;6.87;;;4.87;;
9156;SDS011;4613;48.392;9.998;2022-07-05T01:03:13;4.60;;;4.17;;
9156;SDS011;4613;48.392;9.998;2022-07-05T01:05:44;4.87;;;4.47;;
9156;SDS011;4613;48.392;9.998;2022-07-05T01:08:16;5.83;;;4.43;;
9156;SDS011;4613;48.392;9.998;2022-07-05T01:10:47;7.23;;;4.40;;
9156;SDS011;4613;48.392;9.998;2022-07-05T01:13:18;5.47;;;3.93;;
9156;SDS011;4613;48.392;9.998;2022-07-05T01:15:49;5.10;;;4.20;;
9156;SDS011;4613;48.392;9.998;2022-07-05T01:18:20;4.00;;;3.60;;
9156;SDS011;4613;48.392;9.998;2022-07-05T01:20:52;4.00;;;3.70;;
9156;SDS011;4613;48.392;9.998;2022-07-05T01:23:23;3.90;;;3.60;;
9156;SDS011;4613;48.392;9.998;2022-07-05T01:26:01;4.97;;;3.50;;
9156;SDS011;4613;48.392;9.998;2022-07-05T01:28:32;3.43;;;3.13;;
9156;SDS011;4613;48.392;9.998;2022-07-05T01:31:03;5.60;;;3.30;;
9156;SDS011;4613;48.392;9.998;2022-07-05T01:33:34;4.30;;;3.30;;
9156;SDS011;4613;48.392;9.998;2022-07-05T01:36:05;3.67;;;3.33;;
9156;SDS011;4613;48.392;9.998;2022-07-05T01:38:37;3.90;;;3.40;;
9156;SDS011;4613;48.392;9.998;2022-07-05T01:41:08;3.60;;;3.30;;
9156;SDS011;4613;48.392;9.998;2022-07-05T01:43:39;3.60;;;3.23;;
9156;SDS011;4613;48.392;9.998;2022-07-05T01:46:10;6.20;;;3.53;;
9156;SDS011;4613;48.392;9.998;2022-07-05T01:48:42;5.70;;;3.23;;
9156;SDS011;4613;48.392;9.998;2022-07-05T01:51:16;4.13;;;3.50;;
9156;SDS011;4613;48.392;9.998;2022-07-05T01:53:52;3.37;;;3.03;;
9156;SDS011;4613;48.392;9.998;2022-07-05T01:56:23;3.33;;;3.13;;
9156;SDS011;4613;48.392;9.998;2022-07-05T01:58:55;3.50;;;3.10;;
9156;SDS011;4613;48.392;9.998;2022-07-05T02:01:38;5.40;;;3.20;;
9156;SDS011;4613;48.392;9.998;2022-07-05T02:04:10;3.60;;;3.30;;
9156;SDS011;4613;48.392;9.998;2022-07-05T02:06:42;4.73;;;3.27;;
9156;SDS011;4613;48.392;9.998;2022-07-05T02:09:15;4.53;;;3.27;;
9156;SDS011;4613;48.392;9.998;2022-07-05T02:11:46;3.73;;;3.00;;
9156;SDS011;4613;48.392;9.998;2022-07-05T02:14:17;4.50;;;3.57;;
9156;SDS011;4613;48.392;9.998;2022-07-05T02:16:49;3.40;;;3.10;;
9156;SDS011;4613;48.392;9.998;2022-07-05T02:19:21;5.40;;;3.30;;
9156;SDS011;4613;48.392;9.998;2022-07-05T02:21:53;4.30;;;3.50;;
9156;SDS011;4613;48.392;9.998;2022-07-05T02:24:24;4.30;;;2.83;;
9156;SDS011;4613;48.392;9.998;2022-07-05T02:27:04;4.23;;;3.10;;
9156;SDS011;4613;48.392;9.998;2022-07-05T02:29:35;4.30;;;2.80;;
9156;SDS011;4613;48.392;9.998;2022-07-05T02:32:06;3.20;;;2.90;;
9156;SDS011;4613;48.392;9.998;2022-07-05T02:34:38;4.63;;;3.10;;
9156;SDS011;4613;48.392;9.998;2022-07-05T02:37:09;3.53;;;3.20;;
9156;SDS011;4613;48.392;9.998;2022-07-05T02:39:40;3.90;;;3.50;;
9156;SDS011;4613;48.392;9.998;2022-07-05T02:42:12;5.47;;;2.90;;
9156;SDS011;4613;48.392;9.998;2022-07-05T02:44:44;4.73;;;3.00;;
9156;SDS011;4613;48.392;9.998;2022-07-05T02:47:15;3.00;;;2.70;;
9156;SDS011;4613;48.392;9.998;2022-07-05T02:49:46;3.17;;;2.90;;
9156;SDS011;4613;48.392;9.998;2022-07-05T02:52:17;3.17;;;2.80;;
9156;SDS011;4613;48.392;9.998;2022-07-05T02:54:48;4.53;;;2.63;;
9156;SDS011;4613;48.392;9.998;2022-07-05T02:57:21;3.10;;;2.87;;
9156;SDS011;4613;48.392;9.998;2022-07-05T02:59:53;3.50;;;2.70;;
9156;SDS011;4613;48.392;9.998;2022-07-05T03:02:32;3.30;;;2.60;;
9156;SDS011;4613;48.392;9.998;2022-07-05T03:05:04;3.77;;;2.80;;
9156;SDS011;4613;48.392;9.998;2022-07-05T03:07:36;2.97;;;2.57;;
9156;SDS011;4613;48.392;9.998;2022-07-05T03:10:08;3.60;;;2.90;;
9156;SDS011;4613;48.392;9.998;2022-07-05T03:12:40;7.33;;;3.43;;
9156;SDS011;4613;48.392;9.998;2022-07-05T03:15:15;3.97;;;3.67;;
9156;SDS011;4613;48.392;9.998;2022-07-05T03:17:47;7.17;;;4.83;;
9156;SDS011;4613;48.392;9.998;2022-07-05T03:20:20;9.23;;;6.07;;
9156;SDS011;4613;48.392;9.998;2022-07-05T03:22:52;13.90;;;7.73;;
9156;SDS011;4613;48.392;9.998;2022-07-05T03:25:28;11.87;;;7.40;;
9156;SDS011;4613;48.392;9.998;2022-07-05T03:27:59;10.33;;;6.50;;
9156;SDS011;4613;48.392;9.998;2022-07-05T03:30:30;12.97;;;6.67;;
9156;SDS011;4613;48.392;9.998;2022-07-05T03:33:01;9.03;;;6.23;;
9156;SDS011;4613;48.392;9.998;2022-07-05T03:35:35;9.90;;;6.60;;
9156;SDS011;4613;48.392;9.998;2022-07-05T03:38:06;12.00;;;7.57;;
9156;SDS011;4613;48.392;9.998;2022-07-05T03:40:37;10.97;;;8.20;;
9156;SDS011;4613;48.392;9.998;2022-07-05T03:43:08;8.10;;;7.30;;
9156;SDS011;4613;48.392;9.998;2022-07-05T03:45:41;11.43;;;7.20;;
9156;SDS011;4613;48.392;9.998;2022-07-05T03:48:13;8.30;;;6.17;;
9156;SDS011;4613;48.392;9.998;2022-07-05T03:50:44;8.77;;;7.40;;
9156;SDS011;4613;48.392;9.998;2022-07-05T03:53:15;7.60;;;6.80;;
9156;SDS011;4613;48.392;9.998;2022-07-05T03:55:47;7.73;;;6.80;;
9156;SDS011;4613;48.392;9.998;2022-07-05T03:58:18;8.07;;;6.50;;
9156;SDS011;4613;48.392;9.998;2022-07-05T04:00:50;6.17;;;5.67;;
9156;SDS011;4613;48.392;9.998;2022-07-05T04:03:25;7.57;;;5.70;;
9156;SDS011;4613;48.392;9.998;2022-07-05T04:05:58;5.87;;;5.37;;
9156;SDS011;4613;48.392;9.998;2022-07-05T04:08:29;5.70;;;5.20;;
9156;SDS011;4613;48.392;9.998;2022-07-05T04:11:00;7.27;;;6.20;;
9156;SDS011;4613;48.392;9.998;2022-07-05T04:13:32;6.13;;;4.90;;
9156;SDS011;4613;48.392;9.998;2022-07-05T04:16:03;4.60;;;4.20;;
9156;SDS011;4613;48.392;9.998;2022-07-05T04:18:34;4.70;;;4.07;;
9156;SDS011;4613;48.392;9.998;2022-07-05T04:21:06;5.73;;;3.60;;
9156;SDS011;4613;48.392;9.998;2022-07-05T04:23:37;3.53;;;3.23;;
9156;SDS011;4613;48.392;9.998;2022-07-05T04:26:09;3.67;;;3.03;;
9156;SDS011;4613;48.392;9.998;2022-07-05T04:28:44;3.40;;;3.10;;
9156;SDS011;4613;48.392;9.998;2022-07-05T04:31:19;3.83;;;3.27;;
9156;SDS011;4613;48.392;9.998;2022-07-05T04:33:51;6.23;;;3.50;;
9156;SDS011;4613;48.392;9.998;2022-07-05T04:36:27;4.50;;;3.00;;
9156;SDS011;4613;48.392;9.998;2022-07-05T04:39:00;3.50;;;3.20;;
9156;SDS011;4613;48.392;9.998;2022-07-05T04:41:34;3.00;;;2.70;;
9156;SDS011;4613;48.392;9.998;2022-07-05T04:44:08;4.73;;;3.00;;
9156;SDS011;4613;48.392;9.998;2022-07-05T04:46:40;3.13;;;2.80;;
9156;SDS011;4613;48.392;9.998;2022-07-05T04:49:10;3.10;;;2.80;;
9156;SDS011;4613;48.392;9.998;2022-07-05T04:51:42;2.77;;;2.40;;
9156;SDS011;4613;48.392;9.998;2022-07-05T04:54:13;3.83;;;2.70;;
9156;SDS011;4613;48.392;9.998;2022-07-05T04:56:43;2.67;;;2.47;;
9156;SDS011;4613;48.392;9.998;2022-07-05T04:59:14;2.63;;;2.40;;
9156;SDS011;4613;48.392;9.998;2022-07-05T05:01:45;6.10;;;2.40;;
9156;SDS011;4613;48.392;9.998;2022-07-05T05:04:16;3.57;;;2.80;;
9156;SDS011;4613;48.392;9.998;2022-07-05T05:06:47;3.57;;;2.80;;
9156;SDS011;4613;48.392;9.998;2022-07-05T05:09:18;4.53;;;2.80;;
9156;SDS011;4613;48.392;9.998;2022-07-05T05:11:49;3.90;;;3.50;;
9156;SDS011;4613;48.392;9.998;2022-07-05T05:14:20;3.00;;;2.80;;
9156;SDS011;4613;48.392;9.998;2022-07-05T05:16:51;4.00;;;3.30;;
9156;SDS011;4613;48.392;9.998;2022-07-05T05:19:22;3.30;;;3.10;;
9156;SDS011;4613;48.392;9.998;2022-07-05T05:21:53;3.57;;;3.27;;
9156;SDS011;4613;48.392;9.998;2022-07-05T05:24:24;3.80;;;3.50;;
9156;SDS011;4613;48.392;9.998;2022-07-05T05:26:55;3.90;;;3.60;;
9156;SDS011;4613;48.392;9.998;2022-07-05T05:29:26;6.00;;;4.27;;
9156;SDS011;4613;48.392;9.998;2022-07-05T05:31:57;4.40;;;3.63;;
9156;SDS011;4613;48.392;9.998;2022-07-05T05:34:29;6.27;;;4.53;;
9156;SDS011;4613;48.392;9.998;2022-07-05T05:37:00;4.97;;;4.17;;
9156;SDS011;4613;48.392;9.998;2022-07-05T05:39:31;6.73;;;4.43;;
9156;SDS011;4613;48.392;9.998;2022-07-05T05:42:04;8.90;;;5.57;;
9156;SDS011;4613;48.392;9.998;2022-07-05T05:44:35;8.07;;;4.10;;
9156;SDS011;4613;48.392;9.998;2022-07-05T05:47:06;5.10;;;4.17;;
9156;SDS011;4613;48.392;9.998;2022-07-05T05:49:37;4.50;;;3.60;;
9156;SDS011;4613;48.392;9.998;2022-07-05T05:52:08;8.00;;;3.63;;
9156;SDS011;4613;48.392;9.998;2022-07-05T05:54:39;5.07;;;4.03;;
9156;SDS011;4613;48.392;9.998;2022-07-05T05:57:10;4.10;;;3.50;;
9156;SDS011;4613;48.392;9.998;2022-07-05T05:59:41;5.70;;;3.20;;
9156;SDS011;4613;48.392;9.998;2022-07-05T06:02:12;6.30;;;3.50;;
9156;SDS011;4613;48.392;9.998;2022-07-05T06:04:43;9.43;;;4.20;;
9156;SDS011;4613;48.392;9.998;2022-07-05T06:07:14;8.43;;;4.63;;
9156;SDS011;4613;48.392;9.998;2022-07-05T06:09:45;9.63;;;3.97;;
9156;SDS011;4613;48.392;9.998;2022-07-05T06:12:17;7.40;;;4.27;;
9156;SDS011;4613;48.392;9.998;2022-07-05T06:14:48;9.20;;;4.60;;
9156;SDS011;4613;48.392;9.998;2022-07-05T06:17:19;12.00;;;5.17;;
9156;SDS011;4613;48.392;9.998;2022-07-05T06:19:50;14.10;;;6.00;;
9156;SDS011;4613;48.392;9.998;2022-07-05T06:22:21;10.27;;;5.00;;
9156;SDS011;4613;48.392;9.998;2022-07-05T06:24:52;16.90;;;6.13;;
9156;SDS011;4613;48.392;9.998;2022-07-05T06:27:23;13.07;;;5.30;;
9156;SDS011;4613;48.392;9.998;2022-07-05T06:29:54;13.93;;;5.40;;
9156;SDS011;4613;48.392;9.998;2022-07-05T06:32:25;9.80;;;5.40;;
9156;SDS011;4613;48.392;9.998;2022-07-05T06:34:56;7.13;;;5.27;;
9156;SDS011;4613;48.392;9.998;2022-07-05T06:37:27;8.63;;;5.10;;
9156;SDS011;4613;48.392;9.998;2022-07-05T06:40:10;12.00;;;5.67;;
9156;SDS011;4613;48.392;9.998;2022-07-05T06:42:42;6.47;;;5.27;;
9156;SDS011;4613;48.392;9.998;2022-07-05T06:45:14;7.53;;;5.13;;
9156;SDS011;4613;48.392;9.998;2022-07-05T06:48:08;8.63;;;5.43;;
9156;SDS011;4613;48.392;9.998;2022-07-05T06:50:39;12.10;;;5.07;;
9156;SDS011;4613;48.392;9.998;2022-07-05T06:53:11;6.43;;;4.90;;
9156;SDS011;4613;48.392;9.998;2022-07-05T06:55:42;7.87;;;5.20;;
9156;SDS011;4613;48.392;9.998;2022-07-05T06:58:17;7.03;;;5.17;;
9156;SDS011;4613;48.392;9.998;2022-07-05T07:00:48;10.90;;;5.13;;
9156;SDS011;4613;48.392;9.998;2022-07-05T07:03:20;7.43;;;5.73;;
9156;SDS011;4613;48.392;9.998;2022-07-05T07:05:51;7.50;;;5.27;;
9156;SDS011;4613;48.392;9.998;2022-07-05T07:08:22;7.73;;;4.90;;
9156;SDS011;4613;48.392;9.998;2022-07-05T07:11:13;7.47;;;5.17;;
9156;SDS011;4613;48.392;9.998;2022-07-05T07:13:53;7.40;;;5.20;;
9156;SDS011;4613;48.392;9.998;2022-07-05T07:16:24;7.77;;;5.13;;
9156;SDS011;4613;48.392;9.998;2022-07-05T07:18:56;7.17;;;4.90;;
9156;SDS011;4613;48.392;9.998;2022-07-05T07:21:27;6.43;;;4.97;;
9156;SDS011;4613;48.392;9.998;2022-07-05T07:23:58;6.07;;;4.33;;
9156;SDS011;4613;48.392;9.998;2022-07-05T07:26:29;9.30;;;4.73;;
9156;SDS011;4613;48.392;9.998;2022-07-05T07:29:00;5.63;;;4.37;;
9156;SDS011;4613;48.392;9.998;2022-07-05T07:31:31;5.73;;;4.30;;
9156;SDS011;4613;48.392;9.998;2022-07-05T07:34:02;4.20;;;3.80;;
9156;SDS011;4613;48.392;9.998;2022-07-05T07:36:33;5.63;;;4.00;;
9156;SDS011;4613;48.392;9.998;2022-07-05T07:39:03;4.97;;;3.40;;
9156;SDS011;4613;48.392;9.998;2022-07-05T07:41:34;5.80;;;3.50;;
9156;SDS011;4613;48.392;9.998;2022-07-05T07:44:05;5.50;;;3.30;;
9156;SDS011;4613;48.392;9.998;2022-07-05T07:46:36;5.60;;;3.13;;
9156;SDS011;4613;48.392;9.998;2022-07-05T07:49:09;3.80;;;2.27;;
9156;SDS011;4613;48.392;9.998;2022-07-05T07:51:44;2.53;;;2.20;;
9156;SDS011;4613;48.392;9.998;2022-07-05T07:54:15;3.20;;;2.83;;
9156;SDS011;4613;48.392;9.998;2022-07-05T07:56:46;4.03;;;2.53;;
9156;SDS011;4613;48.392;9.998;2022-07-05T07:59:17;4.60;;;2.77;;
9156;SDS011;4613;48.392;9.998;2022-07-05T08:01:48;3.27;;;2.30;;
9156;SDS011;4613;48.392;9.998;2022-07-05T08:04:19;2.20;;;2.00;;
9156;SDS011;4613;48.392;9.998;2022-07-05T08:06:50;2.10;;;2.00;;
9156;SDS011;4613;48.392;9.998;2022-07-05T08:09:21;3.57;;;1.90;;
9156;SDS011;4613;48.392;9.998;2022-07-05T08:11:52;2.03;;;1.70;;
9156;SDS011;4613;48.392;9.998;2022-07-05T08:14:23;3.20;;;2.00;;
9156;SDS011;4613;48.392;9.998;2022-07-05T08:16:54;2.20;;;1.93;;
9156;SDS011;4613;48.392;9.998;2022-07-05T08:19:25;4.90;;;2.07;;
9156;SDS011;4613;48.392;9.998;2022-07-05T08:22:15;4.87;;;1.87;;
9156;SDS011;4613;48.392;9.998;2022-07-05T08:24:46;3.27;;;1.77;;
9156;SDS011;4613;48.392;9.998;2022-07-05T08:27:17;1.50;;;1.40;;
9156;SDS011;4613;48.392;9.998;2022-07-05T08:29:51;3.10;;;1.90;;
9156;SDS011;4613;48.392;9.998;2022-07-05T08:32:22;1.60;;;1.40;;
9156;SDS011;4613;48.392;9.998;2022-07-05T08:34:53;2.73;;;1.90;;
9156;SDS011;4613;48.392;9.998;2022-07-05T08:37:24;1.87;;;1.60;;
9156;SDS011;4613;48.392;9.998;2022-07-05T08:39:55;2.40;;;1.60;;
9156;SDS011;4613;48.392;9.998;2022-07-05T08:42:28;2.20;;;1.40;;
9156;SDS011;4613;48.392;9.998;2022-07-05T08:44:59;2.93;;;1.50;;
9156;SDS011;4613;48.392;9.998;2022-07-05T08:47:33;4.93;;;1.53;;
9156;SDS011;4613;48.392;9.998;2022-07-05T08:50:07;1.30;;;1.20;;
9156;SDS011;4613;48.392;9.998;2022-07-05T08:52:39;2.17;;;1.10;;
9156;SDS011;4613;48.392;9.998;2022-07-05T08:55:10;2.73;;;1.40;;
9156;SDS011;4613;48.392;9.998;2022-07-05T08:57:42;1.63;;;1.20;;
9156;SDS011;4613;48.392;9.998;2022-07-05T09:00:13;1.40;;;1.30;;
9156;SDS011;4613;48.392;9.998;2022-07-05T09:02:44;1.90;;;1.10;;
9156;SDS011;4613;48.392;9.998;2022-07-05T09:05:15;1.70;;;1.60;;
9156;SDS011;4613;48.392;9.998;2022-07-05T09:07:54;1.63;;;1.30;;
9156;SDS011;4613;48.392;9.998;2022-07-05T09:10:30;2.20;;;1.40;;
9156;SDS011;4613;48.392;9.998;2022-07-05T09:13:01;1.40;;;1.30;;
9156;SDS011;4613;48.392;9.998;2022-07-05T09:15:32;2.47;;;1.30;;
9156;SDS011;4613;48.392;9.998;2022-07-05T09:18:03;1.40;;;1.30;;
9156;SDS011;4613;48.392;9.998;2022-07-05T09:20:34;3.13;;;1.30;;
9156;SDS011;4613;48.392;9.998;2022-07-05T09:23:05;1.37;;;1.27;;
9156;SDS011;4613;48.392;9.998;2022-07-05T09:25:36;3.30;;;1.90;;
9156;SDS011;4613;48.392;9.998;2022-07-05T09:28:07;1.50;;;1.40;;
9156;SDS011;4613;48.392;9.998;2022-07-05T09:30:39;1.20;;;1.20;;
9156;SDS011;4613;48.392;9.998;2022-07-05T09:33:12;1.43;;;1.33;;
9156;SDS011;4613;48.392;9.998;2022-07-05T09:35:54;1.50;;;1.40;;
9156;SDS011;4613;48.392;9.998;2022-07-05T09:38:30;1.67;;;1.57;;
9156;SDS011;4613;48.392;9.998;2022-07-05T09:41:01;1.70;;;1.60;;
9156;SDS011;4613;48.392;9.998;2022-07-05T09:43:33;1.20;;;1.20;;
9156;SDS011;4613;48.392;9.998;2022-07-05T09:46:04;1.77;;;1.57;;
9156;SDS011;4613;48.392;9.998;2022-07-05T09:48:50;1.40;;;1.30;;
9156;SDS011;4613;48.392;9.998;2022-07-05T09:51:22;1.43;;;1.30;;
9156;SDS011;4613;48.392;9.998;2022-07-05T09:53:57;2.03;;;1.33;;
9156;SDS011;4613;48.392;9.998;2022-07-05T09:56:29;1.37;;;1.30;;
9156;SDS011;4613;48.392;9.998;2022-07-05T09:59:13;1.60;;;1.50;;
9156;SDS011;4613;48.392;9.998;2022-07-05T10:01:46;2.23;;;1.60;;
9156;SDS011;4613;48.392;9.998;2022-07-05T10:04:17;2.30;;;1.67;;
9156;SDS011;4613;48.392;9.998;2022-07-05T10:06:48;2.03;;;1.83;;
9156;SDS011;4613;48.392;9.998;2022-07-05T10:09:19;1.60;;;1.50;;
9156;SDS011;4613;48.392;9.998;2022-07-05T10:11:51;1.67;;;1.57;;
9156;SDS011;4613;48.392;9.998;2022-07-05T10:14:22;1.43;;;1.33;;
9156;SDS011;4613;48.392;9.998;2022-07-05T10:17:00;1.60;;;1.40;;
9156;SDS011;4613;48.392;9.998;2022-07-05T10:19:33;2.30;;;1.40;;
9156;SDS011;4613;48.392;9.998;2022-07-05T10:22:11;1.50;;;1.40;;
9156;SDS011;4613;48.392;9.998;2022-07-05T10:24:43;1.60;;;1.40;;
9156;SDS011;4613;48.392;9.998;2022-07-05T10:27:15;1.77;;;1.30;;
9156;SDS011;4613;48.392;9.998;2022-07-05T10:29:48;3.67;;;1.40;;
9156;SDS011;4613;48.392;9.998;2022-07-05T10:32:22;1.53;;;1.30;;
9156;SDS011;4613;48.392;9.998;2022-07-05T10:34:55;1.40;;;1.30;;
9156;SDS011;4613;48.392;9.998;2022-07-05T10:37:30;1.40;;;1.30;;
9156;SDS011;4613;48.392;9.998;2022-07-05T10:40:04;1.57;;;1.43;;
9156;SDS011;4613;48.392;9.998;2022-07-05T10:42:40;3.10;;;1.40;;
9156;SDS011;4613;48.392;9.998;2022-07-05T10:45:31;1.40;;;1.30;;
9156;SDS011;4613;48.392;9.998;2022-07-05T10:48:26;1.57;;;1.43;;
9156;SDS011;4613;48.392;9.998;2022-07-05T10:50:59;1.60;;;1.50;;
9156;SDS011;4613;48.392;9.998;2022-07-05T11:03:52;2.77;;;1.37;;
9156;SDS011;4613;48.392;9.998;2022-07-05T11:06:31;1.47;;;1.20;;
9156;SDS011;4613;48.392;9.998;2022-07-05T11:19:58;4.00;;;1.43;;
9156;SDS011;4613;48.392;9.998;2022-07-05T11:23:01;1.80;;;1.40;;
9156;SDS011;4613;48.392;9.998;2022-07-05T11:25:44;1.80;;;1.70;;
9156;SDS011;4613;48.392;9.998;2022-07-05T11:28:20;2.53;;;1.90;;
9156;SDS011;4613;48.392;9.998;2022-07-05T11:30:58;2.23;;;1.90;;
9156;SDS011;4613;48.392;9.998;2022-07-05T11:33:31;1.67;;;1.47;;
9156;SDS011;4613;48.392;9.998;2022-07-05T11:36:18;1.73;;;1.57;;
9156;SDS011;4613;48.392;9.998;2022-07-05T11:41:47;2.43;;;1.90;;
9156;SDS011;4613;48.392;9.998;2022-07-05T11:44:19;2.50;;;1.90;;
9156;SDS011;4613;48.392;9.998;2022-07-05T11:46:55;3.73;;;2.00;;
9156;SDS011;4613;48.392;9.998;2022-07-05T11:49:32;3.37;;;1.73;;
9156;SDS011;4613;48.392;9.998;2022-07-05T11:52:04;2.60;;;1.80;;
9156;SDS011;4613;48.392;9.998;2022-07-05T11:54:35;2.57;;;1.97;;
9156;SDS011;4613;48.392;9.998;2022-07-05T11:57:08;4.77;;;3.20;;
9156;SDS011;4613;48.392;9.998;2022-07-05T11:59:40;2.87;;;2.57;;
9156;SDS011;4613;48.392;9.998;2022-07-05T12:02:11;2.50;;;2.10;;
9156;SDS011;4613;48.392;9.998;2022-07-05T12:07:34;5.97;;;1.67;;
9156;SDS011;4613;48.392;9.998;2022-07-05T12:10:05;2.83;;;2.10;;
9156;SDS011;4613;48.392;9.998;2022-07-05T12:13:02;1.93;;;1.70;;
9156;SDS011;4613;48.392;9.998;2022-07-05T12:15:36;3.50;;;2.50;;
9156;SDS011;4613;48.392;9.998;2022-07-05T12:18:08;5.63;;;3.47;;
9156;SDS011;4613;48.392;9.998;2022-07-05T12:20:39;1.67;;;1.57;;
9156;SDS011;4613;48.392;9.998;2022-07-05T12:23:10;2.80;;;1.60;;
9156;SDS011;4613;48.392;9.998;2022-07-05T12:25:41;2.50;;;1.87;;
9156;SDS011;4613;48.392;9.998;2022-07-05T12:28:12;2.30;;;1.57;;
9156;SDS011;4613;48.392;9.998;2022-07-05T12:30:44;3.83;;;1.70;;
9156;SDS011;4613;48.392;9.998;2022-07-05T12:33:15;2.47;;;1.43;;
9156;SDS011;4613;48.392;9.998;2022-07-05T12:35:50;1.60;;;1.50;;
9156;SDS011;4613;48.392;9.998;2022-07-05T12:38:21;2.93;;;1.47;;
9156;SDS011;4613;48.392;9.998;2022-07-05T12:40:59;1.67;;;1.57;;
9156;SDS011;4613;48.392;9.998;2022-07-05T12:43:30;1.67;;;1.57;;
9156;SDS011;4613;48.392;9.998;2022-07-05T12:46:06;2.37;;;1.70;;
9156;SDS011;4613;48.392;9.998;2022-07-05T12:48:38;1.67;;;1.57;;
9156;SDS011;4613;48.392;9.998;2022-07-05T12:51:09;1.70;;;1.60;;
9156;SDS011;4613;48.392;9.998;2022-07-05T12:53:44;2.80;;;1.50;;
9156;SDS011;4613;48.392;9.998;2022-07-05T12:56:38;1.90;;;1.40;;
9156;SDS011;4613;48.392;9.998;2022-07-05T12:59:27;2.53;;;2.27;;
9156;SDS011;4613;48.392;9.998;2022-07-05T13:01:58;3.17;;;1.93;;
9156;SDS011;4613;48.392;9.998;2022-07-05T13:04:29;1.63;;;1.53;;
9156;SDS011;4613;48.392;9.998;2022-07-05T13:07:01;1.33;;;1.23;;
9156;SDS011;4613;48.392;9.998;2022-07-05T13:09:34;1.40;;;1.30;;
9156;SDS011;4613;48.392;9.998;2022-07-05T13:14:52;2.00;;;1.30;;
9156;SDS011;4613;48.392;9.998;2022-07-05T13:17:24;3.50;;;1.73;;
9156;SDS011;4613;48.392;9.998;2022-07-05T13:19:55;1.47;;;1.37;;
9156;SDS011;4613;48.392;9.998;2022-07-05T13:22:26;2.53;;;1.53;;
9156;SDS011;4613;48.392;9.998;2022-07-05T13:24:57;6.80;;;3.07;;
9156;SDS011;4613;48.392;9.998;2022-07-05T13:27:28;2.93;;;1.63;;
9156;SDS011;4613;48.392;9.998;2022-07-05T13:29:59;8.47;;;2.80;;
9156;SDS011;4613;48.392;9.998;2022-07-05T13:32:30;2.53;;;1.83;;
9156;SDS011;4613;48.392;9.998;2022-07-05T13:35:02;1.53;;;1.37;;
9156;SDS011;4613;48.392;9.998;2022-07-05T13:37:33;4.67;;;1.40;;
9156;SDS011;4613;48.392;9.998;2022-07-05T13:40:05;3.97;;;1.40;;
9156;SDS011;4613;48.392;9.998;2022-07-05T13:42:36;1.73;;;1.40;;
9156;SDS011;4613;48.392;9.998;2022-07-05T13:45:07;1.73;;;1.37;;
9156;SDS011;4613;48.392;9.998;2022-07-05T13:47:40;1.37;;;1.23;;
9156;SDS011;4613;48.392;9.998;2022-07-05T13:50:10;1.50;;;1.40;;
9156;SDS011;4613;48.392;9.998;2022-07-05T13:53:00;1.20;;;1.10;;
9156;SDS011;4613;48.392;9.998;2022-07-05T13:55:32;1.63;;;1.30;;
9156;SDS011;4613;48.392;9.998;2022-07-05T13:58:03;1.97;;;1.30;;
9156;SDS011;4613;48.392;9.998;2022-07-05T14:00:34;2.60;;;1.30;;
9156;SDS011;4613;48.392;9.998;2022-07-05T14:03:05;1.60;;;1.10;;
9156;SDS011;4613;48.392;9.998;2022-07-05T14:05:36;1.67;;;1.40;;
9156;SDS011;4613;48.392;9.998;2022-07-05T14:08:07;1.37;;;1.23;;
9156;SDS011;4613;48.392;9.998;2022-07-05T14:10:41;1.43;;;1.33;;
9156;SDS011;4613;48.392;9.998;2022-07-05T14:13:12;1.53;;;1.23;;
9156;SDS011;4613;48.392;9.998;2022-07-05T14:15:43;1.30;;;1.20;;
9156;SDS011;4613;48.392;9.998;2022-07-05T14:18:16;4.20;;;1.37;;
9156;SDS011;4613;48.392;9.998;2022-07-05T14:20:48;2.30;;;1.50;;
9156;SDS011;4613;48.392;9.998;2022-07-05T14:23:38;1.00;;;1.00;;
9156;SDS011;4613;48.392;9.998;2022-07-05T14:26:09;1.30;;;1.20;;
9156;SDS011;4613;48.392;9.998;2022-07-05T14:28:42;1.30;;;1.20;;
9156;SDS011;4613;48.392;9.998;2022-07-05T14:31:13;1.83;;;1.20;;
9156;SDS011;4613;48.392;9.998;2022-07-05T14:33:44;2.40;;;1.30;;
9156;SDS011;4613;48.392;9.998;2022-07-05T14:36:15;1.30;;;1.27;;
9156;SDS011;4613;48.392;9.998;2022-07-05T14:38:48;1.30;;;1.20;;
9156;SDS011;4613;48.392;9.998;2022-07-05T14:41:19;1.40;;;1.23;;
9156;SDS011;4613;48.392;9.998;2022-07-05T14:43:50;1.60;;;1.30;;
9156;SDS011;4613;48.392;9.998;2022-07-05T14:46:21;1.93;;;1.50;;
9156;SDS011;4613;48.392;9.998;2022-07-05T14:48:52;1.50;;;1.40;;
9156;SDS011;4613;48.392;9.998;2022-07-05T14:51:23;1.90;;;1.37;;
9156;SDS011;4613;48.392;9.998;2022-07-05T14:53:54;2.83;;;1.30;;
9156;SDS011;4613;48.392;9.998;2022-07-05T14:56:25;3.20;;;1.23;;
9156;SDS011;4613;48.392;9.998;2022-07-05T14:58:56;1.30;;;1.20;;
9156;SDS011;4613;48.392;9.998;2022-07-05T15:01:27;2.00;;;1.20;;
9156;SDS011;4613;48.392;9.998;2022-07-05T15:03:58;1.40;;;1.30;;
9156;SDS011;4613;48.392;9.998;2022-07-05T15:06:29;1.50;;;1.40;;
9156;SDS011;4613;48.392;9.998;2022-07-05T15:09:00;1.40;;;1.27;;
9156;SDS011;4613;48.392;9.998;2022-07-05T15:11:31;2.30;;;1.50;;
9156;SDS011;4613;48.392;9.998;2022-07-05T15:14:02;2.57;;;2.37;;
9156;SDS011;4613;48.392;9.998;2022-07-05T15:16:35;3.10;;;1.50;;
9156;SDS011;4613;48.392;9.998;2022-07-05T15:19:07;15.87;;;7.27;;
9156;SDS011;4613;48.392;9.998;2022-07-05T15:21:38;5.80;;;3.93;;
9156;SDS011;4613;48.392;9.998;2022-07-05T15:24:10;2.50;;;1.80;;
9156;SDS011;4613;48.392;9.998;2022-07-05T15:26:41;1.70;;;1.57;;
9156;SDS011;4613;48.392;9.998;2022-07-05T15:29:12;4.80;;;1.50;;
9156;SDS011;4613;48.392;9.998;2022-07-05T15:31:43;2.50;;;1.30;;
9156;SDS011;4613;48.392;9.998;2022-07-05T15:34:14;1.60;;;1.50;;
9156;SDS011;4613;48.392;9.998;2022-07-05T15:36:45;1.50;;;1.40;;
9156;SDS011;4613;48.392;9.998;2022-07-05T15:39:16;2.33;;;1.40;;
9156;SDS011;4613;48.392;9.998;2022-07-05T15:41:47;1.43;;;1.30;;
9156;SDS011;4613;48.392;9.998;2022-07-05T15:44:18;1.57;;;1.40;;
9156;SDS011;4613;48.392;9.998;2022-07-05T15:46:49;2.17;;;1.40;;
9156;SDS011;4613;48.392;9.998;2022-07-05T15:49:39;1.20;;;1.20;;
9156;SDS011;4613;48.392;9.998;2022-07-05T15:52:10;1.50;;;1.40;;
9156;SDS011;4613;48.392;9.998;2022-07-05T15:54:41;3.93;;;2.20;;
9156;SDS011;4613;48.392;9.998;2022-07-05T15:57:12;1.77;;;1.40;;
9156;SDS011;4613;48.392;9.998;2022-07-05T15:59:43;1.30;;;1.20;;
9156;SDS011;4613;48.392;9.998;2022-07-05T16:02:14;1.43;;;1.33;;
9156;SDS011;4613;48.392;9.998;2022-07-05T16:04:46;2.33;;;1.60;;
9156;SDS011;4613;48.392;9.998;2022-07-05T16:07:17;1.50;;;1.40;;
9156;SDS011;4613;48.392;9.998;2022-07-05T16:09:48;1.40;;;1.30;;
9156;SDS011;4613;48.392;9.998;2022-07-05T16:12:23;1.23;;;1.20;;
9156;SDS011;4613;48.392;9.998;2022-07-05T16:14:55;1.83;;;1.40;;
9156;SDS011;4613;48.392;9.998;2022-07-05T16:17:26;1.93;;;1.10;;